createdAt,value
2018-12-19T00:01:42.129Z,59.22
2018-12-19T00:03:50.579Z,59.34
2018-12-19T00:05:59.365Z,59.60
2018-12-19T00:08:05.954Z,59.21
2018-12-19T00:10:12.230Z,59.36
2018-12-19T00:12:18.498Z,59.10
2018-12-19T00:14:25.450Z,59.41
2018-12-19T00:16:31.636Z,59.24
2018-12-19T00:18:38.811Z,59.37
2018-12-19T00:20:45.060Z,59.68
2018-12-19T00:22:51.288Z,58.99
2018-12-19T00:24:59.539Z,59.55
2018-12-19T00:27:08.027Z,59.54
2018-12-19T00:29:16.445Z,59.63
2018-12-19T00:31:24.706Z,59.34
2018-12-19T00:33:33.468Z,59.21
2018-12-19T00:35:42.527Z,59.78
2018-12-19T00:37:48.834Z,59.46
2018-12-19T00:39:54.942Z,59.65
2018-12-19T00:42:01.071Z,59.67
2018-12-19T00:44:07.382Z,59.42
2018-12-19T00:46:14.376Z,59.52
2018-12-19T00:48:20.985Z,59.82
2018-12-19T00:50:27.190Z,59.59
2018-12-19T00:52:33.328Z,59.83
2018-12-19T00:54:40.573Z,59.68
2018-12-19T00:56:47.093Z,59.41
2018-12-19T00:58:53.177Z,59.82
2018-12-19T01:00:59.893Z,59.83
2018-12-19T01:03:05.980Z,59.71
2018-12-19T01:05:12.454Z,59.50
2018-12-19T01:07:19.317Z,59.50
2018-12-19T01:09:26.251Z,59.79
2018-12-19T01:11:32.319Z,59.96
2018-12-19T01:13:38.447Z,59.56
2018-12-19T01:15:44.773Z,59.62
2018-12-19T01:17:51.070Z,59.63
2018-12-19T01:19:58.195Z,59.42
2018-12-19T01:22:04.654Z,59.66
2018-12-19T01:24:10.914Z,59.80
2018-12-19T01:26:17.039Z,59.45
2018-12-19T01:28:23.158Z,59.74
2018-12-19T01:30:29.690Z,59.66
2018-12-19T01:32:36.744Z,59.87
2018-12-19T01:34:42.943Z,59.74
2018-12-19T01:36:49.247Z,59.59
2018-12-19T01:38:55.389Z,59.74
2018-12-19T01:41:02.173Z,59.75
2018-12-19T01:43:08.717Z,59.69
2018-12-19T01:45:16.776Z,59.57
2018-12-19T01:47:22.849Z,59.45
2018-12-19T01:49:29.013Z,59.49
2018-12-19T01:51:36.181Z,59.85
2018-12-19T01:53:42.850Z,59.68
2018-12-19T01:55:51.484Z,59.35
2018-12-19T01:57:57.626Z,59.72
2018-12-19T02:00:03.943Z,59.61
2018-12-19T02:02:11.350Z,59.76
2018-12-19T02:04:17.559Z,59.49
2018-12-19T02:06:23.881Z,59.44
2018-12-19T02:08:36.496Z,59.85
2018-12-19T02:10:45.403Z,59.68
2018-12-19T02:12:51.686Z,59.73
2018-12-19T02:14:57.901Z,60.02
2018-12-19T02:17:04.177Z,59.86
2018-12-19T02:19:10.731Z,60.06
2018-12-19T02:21:16.904Z,60.11
2018-12-19T02:23:23.753Z,59.76
2018-12-19T02:25:30.445Z,60.11
2018-12-19T02:27:37.434Z,60.08
2018-12-19T02:29:44.645Z,59.96
2018-12-19T02:31:50.865Z,60.33
2018-12-19T02:33:57.575Z,59.95
2018-12-19T02:36:03.757Z,60.19
2018-12-19T02:38:09.889Z,60.05
2018-12-19T02:40:15.958Z,60.00
2018-12-19T02:42:22.098Z,60.03
2018-12-19T02:44:28.838Z,60.09
2018-12-19T02:46:35.240Z,60.28
2018-12-19T02:48:41.765Z,60.10
2018-12-19T02:50:47.949Z,59.88
2018-12-19T02:52:54.074Z,60.05
2018-12-19T02:57:23.626Z,59.93
2018-12-19T02:59:29.790Z,60.23
2018-12-19T03:01:37.414Z,60.53
2018-12-19T03:03:44.516Z,60.01
2018-12-19T03:05:51.076Z,60.30
2018-12-19T03:07:57.886Z,60.07
2018-12-19T03:10:04.389Z,60.11
2018-12-19T03:12:10.548Z,60.58
2018-12-19T03:14:17.365Z,60.39
2018-12-19T03:16:23.902Z,60.33
2018-12-19T03:18:30.775Z,60.28
2018-12-19T03:20:37.004Z,60.54
2018-12-19T03:22:43.359Z,60.15
2018-12-19T03:24:49.598Z,60.39
2018-12-19T03:26:55.674Z,59.99
2018-12-19T03:29:02.637Z,60.35
2018-12-19T03:31:08.766Z,60.56
2018-12-19T03:33:17.380Z,60.47
2018-12-19T03:35:23.907Z,60.61
2018-12-19T03:37:30.266Z,60.43
2018-12-19T03:39:36.548Z,60.48
2018-12-19T03:41:42.773Z,60.62
2018-12-19T03:43:49.484Z,60.21
2018-12-19T03:45:56.261Z,60.28
2018-12-19T03:48:02.586Z,60.55
2018-12-19T03:50:10.688Z,60.21
2018-12-19T03:52:16.954Z,60.45
2018-12-19T03:54:23.432Z,60.46
2018-12-19T03:56:30.360Z,60.69
2018-12-19T03:58:36.435Z,60.28
2018-12-19T04:00:42.649Z,60.50
2018-12-19T04:02:48.724Z,60.79
2018-12-19T04:04:54.852Z,60.72
2018-12-19T04:07:00.970Z,60.48
2018-12-19T04:09:08.312Z,60.91
2018-12-19T04:11:14.628Z,60.63
2018-12-19T04:13:21.416Z,60.64
2018-12-19T04:15:28.009Z,60.50
2018-12-19T04:17:34.908Z,60.61
2018-12-19T04:19:41.760Z,60.77
2018-12-19T04:21:50.013Z,60.75
2018-12-19T04:23:56.247Z,60.47
2018-12-19T04:26:02.379Z,60.70
2018-12-19T04:28:08.577Z,61.13
2018-12-19T04:30:14.623Z,60.77
2018-12-19T04:32:20.931Z,60.63
2018-12-19T04:34:27.376Z,60.85
2018-12-19T04:36:33.417Z,61.02
2018-12-19T04:38:40.519Z,60.72
2018-12-19T04:40:46.605Z,60.74
2018-12-19T04:42:52.668Z,60.95
2018-12-19T04:44:59.632Z,60.93
2018-12-19T04:47:06.436Z,60.60
2018-12-19T04:49:13.364Z,60.84
2018-12-19T04:51:19.663Z,60.83
2018-12-19T04:53:25.828Z,60.78
2018-12-19T04:55:31.933Z,60.70
2018-12-19T04:57:38.105Z,60.76
2018-12-19T04:59:44.219Z,60.87
2018-12-19T05:01:50.297Z,60.91
2018-12-19T05:03:56.550Z,60.69
2018-12-19T05:06:05.507Z,60.91
2018-12-19T05:08:11.716Z,60.56
2018-12-19T05:10:17.945Z,60.71
2018-12-19T05:12:23.994Z,61.03
2018-12-19T05:14:31.294Z,60.86
2018-12-19T05:16:37.802Z,60.79
2018-12-19T05:18:44.089Z,60.70
2018-12-19T05:20:53.006Z,60.93
2018-12-19T05:22:59.134Z,60.87
2018-12-19T05:25:06.126Z,60.78
2018-12-19T05:27:12.300Z,60.97
2018-12-19T05:29:18.463Z,60.76
2018-12-19T05:31:24.728Z,61.00
2018-12-19T05:35:49.131Z,60.88
2018-12-19T05:37:55.469Z,61.01
2018-12-19T05:40:01.809Z,61.28
2018-12-19T05:42:07.978Z,61.03
2018-12-19T05:44:14.880Z,61.07
2018-12-19T05:46:22.790Z,60.91
2018-12-19T05:48:28.899Z,61.12
2018-12-19T05:50:35.740Z,60.62
2018-12-19T05:52:41.936Z,61.08
2018-12-19T05:54:48.441Z,61.16
2018-12-19T05:56:54.562Z,61.00
2018-12-19T05:59:00.838Z,61.40
2018-12-19T06:01:11.684Z,61.17
2018-12-19T06:03:21.630Z,60.95
2018-12-19T06:05:28.067Z,61.15
2018-12-19T06:07:34.122Z,61.18
2018-12-19T06:09:40.549Z,60.98
2018-12-19T06:11:46.642Z,60.87
2018-12-19T06:13:55.306Z,60.96
2018-12-19T06:16:02.081Z,61.14
2018-12-19T06:18:08.184Z,61.05
2018-12-19T06:20:15.005Z,61.14
2018-12-19T06:22:21.476Z,61.09
2018-12-19T06:24:27.907Z,61.37
2018-12-19T06:26:35.859Z,61.14
2018-12-19T06:28:41.932Z,61.21
2018-12-19T06:30:48.664Z,61.40
2018-12-19T06:32:55.536Z,61.22
2018-12-19T06:35:01.722Z,61.45
2018-12-19T06:37:09.134Z,61.60
2018-12-19T06:39:16.222Z,61.34
2018-12-19T06:41:23.724Z,61.58
2018-12-19T06:43:29.807Z,61.72
2018-12-19T06:45:36.929Z,61.84
2018-12-19T06:47:43.206Z,61.73
2018-12-19T06:49:49.433Z,61.68
2018-12-19T06:51:55.564Z,61.71
2018-12-19T06:54:01.765Z,61.50
2018-12-19T06:56:08.030Z,61.69
2018-12-19T06:58:14.090Z,61.85
2018-12-19T07:00:20.585Z,61.58
2018-12-19T07:02:27.592Z,61.75
2018-12-19T07:04:33.746Z,62.10
2018-12-19T07:06:39.872Z,61.89
2018-12-19T07:08:46.075Z,61.98
2018-12-19T07:10:52.371Z,62.17
2018-12-19T07:13:01.415Z,62.16
2018-12-19T07:15:08.134Z,61.90
2018-12-19T07:17:14.316Z,61.83
2018-12-19T07:19:20.634Z,62.21
2018-12-19T07:21:28.314Z,62.07
2018-12-19T07:23:34.563Z,62.40
2018-12-19T07:25:41.145Z,62.25
2018-12-19T07:27:48.110Z,62.17
2018-12-19T07:29:54.228Z,62.26
2018-12-19T07:32:00.537Z,62.10
2018-12-19T07:34:07.082Z,62.41
2018-12-19T07:36:13.373Z,62.46
2018-12-19T07:38:19.617Z,62.79
2018-12-19T07:40:26.102Z,62.86
2018-12-19T07:42:34.391Z,62.35
2018-12-19T07:44:41.648Z,62.78
2018-12-19T07:46:47.732Z,62.19
2018-12-19T07:48:54.000Z,62.52
2018-12-19T07:51:00.274Z,62.10
2018-12-19T07:53:06.614Z,62.41
2018-12-19T07:55:13.253Z,62.20
2018-12-19T07:57:19.549Z,61.94
2018-12-19T07:59:25.967Z,62.81
2018-12-19T08:01:32.154Z,62.33
2018-12-19T08:03:38.244Z,62.37
2018-12-19T08:05:44.561Z,62.28
2018-12-19T08:07:50.648Z,62.56
2018-12-19T08:09:57.681Z,62.16
2018-12-19T08:12:03.856Z,62.17
2018-12-19T08:14:10.768Z,62.35
2018-12-19T08:16:17.298Z,62.46
2018-12-19T08:18:24.173Z,62.16
2018-12-19T08:20:32.089Z,62.44
2018-12-19T08:22:38.853Z,62.52
2018-12-19T08:24:45.041Z,62.52
2018-12-19T08:26:53.396Z,62.33
2018-12-19T08:29:01.964Z,62.19
2018-12-19T08:31:09.713Z,62.78
2018-12-19T08:33:16.173Z,62.87
2018-12-19T08:35:22.501Z,62.77
2018-12-19T08:37:29.030Z,62.67
2018-12-19T08:39:35.562Z,62.98
2018-12-19T08:41:43.544Z,62.45
2018-12-19T08:43:49.857Z,62.80
2018-12-19T08:45:58.209Z,62.60
2018-12-19T08:48:04.977Z,62.28
2018-12-19T08:50:13.116Z,62.59
2018-12-19T08:52:19.530Z,62.53
2018-12-19T08:54:26.782Z,62.92
2018-12-19T08:56:33.033Z,62.75
2018-12-19T08:58:39.546Z,63.10
2018-12-19T09:00:45.970Z,62.86
2018-12-19T09:02:52.111Z,62.94
2018-12-19T09:04:58.299Z,63.06
2018-12-19T09:07:04.513Z,62.89
2018-12-19T09:09:10.856Z,62.93
2018-12-19T09:11:17.187Z,62.78
2018-12-19T09:13:26.633Z,62.96
2018-12-19T09:15:38.613Z,63.21
2018-12-19T09:17:45.829Z,63.27
2018-12-19T09:19:52.411Z,62.90
2018-12-19T09:21:58.859Z,62.90
2018-12-19T09:24:07.151Z,62.87
2018-12-19T09:26:13.417Z,62.73
2018-12-19T09:28:19.761Z,62.83
2018-12-19T09:30:26.040Z,63.16
2018-12-19T09:32:32.217Z,62.89
2018-12-19T09:34:38.487Z,63.01
2018-12-19T09:36:45.935Z,62.51
2018-12-19T09:38:52.082Z,62.72
2018-12-19T09:40:58.194Z,62.68
2018-12-19T09:43:04.565Z,62.71
2018-12-19T09:45:13.569Z,62.83
2018-12-19T09:47:19.897Z,62.99
2018-12-19T09:49:26.046Z,62.75
2018-12-19T09:51:33.531Z,62.80
2018-12-19T09:53:41.594Z,62.72
2018-12-19T09:55:47.929Z,62.80
2018-12-19T09:57:54.193Z,62.87
2018-12-19T10:00:00.515Z,62.82
2018-12-19T10:02:08.901Z,62.91
2018-12-19T10:04:15.894Z,62.73
2018-12-19T10:06:22.080Z,62.65
2018-12-19T10:08:35.283Z,62.93
2018-12-19T10:13:09.445Z,63.15
2018-12-19T10:15:16.273Z,63.05
2018-12-19T10:17:30.236Z,62.82
2018-12-19T10:19:36.560Z,62.92
2018-12-19T10:21:43.478Z,62.82
2018-12-19T10:23:53.010Z,62.90
2018-12-19T10:26:04.135Z,62.48
2018-12-19T10:28:14.961Z,63.04
2018-12-19T10:30:28.662Z,62.54
2018-12-19T10:32:40.578Z,62.70
2018-12-19T10:34:46.730Z,62.64
2018-12-19T10:36:53.080Z,62.38
2018-12-19T10:39:00.327Z,62.95
2018-12-19T10:41:06.583Z,62.69
2018-12-19T10:43:13.753Z,62.75
2018-12-19T10:45:21.698Z,62.74
2018-12-19T10:47:29.381Z,62.55
2018-12-19T10:49:35.715Z,62.54
2018-12-19T10:51:42.978Z,62.68
2018-12-19T10:53:49.236Z,62.64
2018-12-19T10:55:55.773Z,62.57
2018-12-19T10:58:02.573Z,63.22
2018-12-19T11:00:18.064Z,62.85
2018-12-19T11:02:24.274Z,63.00
2018-12-19T11:04:30.470Z,62.76
2018-12-19T11:06:37.361Z,62.76
2018-12-19T11:08:45.379Z,62.94
2018-12-19T11:10:51.585Z,62.48
2018-12-19T11:12:58.839Z,62.68
2018-12-19T11:17:28.890Z,62.75
2018-12-19T11:19:37.770Z,62.51
2018-12-19T11:21:44.059Z,62.53
2018-12-19T11:23:51.139Z,63.07
2018-12-19T11:25:57.226Z,62.89
2018-12-19T11:28:03.404Z,62.61
2018-12-19T11:30:10.627Z,62.86
2018-12-19T11:32:17.535Z,62.84
2018-12-19T11:34:26.975Z,62.79
2018-12-19T11:36:34.064Z,62.73
2018-12-19T11:38:41.972Z,62.76
2018-12-19T11:40:48.441Z,63.06
2018-12-19T11:42:54.695Z,62.86
2018-12-19T11:45:02.251Z,62.82
2018-12-19T11:47:08.350Z,62.68
2018-12-19T11:49:15.457Z,62.98
2018-12-19T11:51:21.665Z,62.72
2018-12-19T11:53:27.958Z,63.05
2018-12-19T11:55:34.652Z,62.74
2018-12-19T11:57:41.899Z,63.06
2018-12-19T11:59:49.050Z,63.12
2018-12-19T12:01:55.189Z,62.75
2018-12-19T12:04:03.258Z,62.94
2018-12-19T12:06:12.128Z,62.77
2018-12-19T12:08:21.593Z,62.56
2018-12-19T12:10:27.842Z,62.44
2018-12-19T12:12:36.256Z,62.46
2018-12-19T12:14:42.356Z,62.52
2018-12-19T12:16:48.509Z,62.13
2018-12-19T12:18:55.546Z,62.11
2018-12-19T12:21:02.841Z,62.04
2018-12-19T12:23:12.132Z,61.98
2018-12-19T12:25:18.489Z,61.96
2018-12-19T12:27:24.592Z,61.99
2018-12-19T12:29:31.030Z,61.91
2018-12-19T12:31:37.238Z,61.85
2018-12-19T12:33:43.387Z,61.67
2018-12-19T12:35:50.770Z,61.77
2018-12-19T12:37:57.623Z,61.85
2018-12-19T12:40:05.457Z,61.60
2018-12-19T12:42:13.103Z,61.81
2018-12-19T12:44:19.922Z,61.61
2018-12-19T12:46:26.112Z,61.84
2018-12-19T12:48:32.248Z,61.63
2018-12-19T12:50:38.379Z,61.93
2018-12-19T12:52:44.559Z,61.48
2018-12-19T12:54:50.704Z,61.74
2018-12-19T12:56:56.935Z,61.69
2018-12-19T12:59:03.233Z,61.97
2018-12-19T13:01:09.681Z,61.55
2018-12-19T13:03:15.951Z,61.46
2018-12-19T13:05:24.393Z,61.65
2018-12-19T13:07:30.692Z,61.74
2018-12-19T13:09:36.808Z,61.42
2018-12-19T13:11:43.109Z,61.68
2018-12-19T13:13:49.367Z,61.56
2018-12-19T13:15:55.763Z,61.36
2018-12-19T13:18:02.619Z,61.72
2018-12-19T13:20:08.736Z,61.88
2018-12-19T13:22:14.947Z,61.63
2018-12-19T13:24:21.093Z,61.85
2018-12-19T13:26:27.215Z,61.22
2018-12-19T13:28:33.591Z,61.47
2018-12-19T13:30:39.763Z,61.51
2018-12-19T13:32:47.389Z,61.51
2018-12-19T13:34:54.611Z,61.66
2018-12-19T13:37:01.311Z,61.61
2018-12-19T13:39:08.703Z,61.53
2018-12-19T13:41:14.907Z,61.78
2018-12-19T13:43:21.045Z,61.54
2018-12-19T13:45:27.963Z,61.85
2018-12-19T13:47:34.259Z,61.65
2018-12-19T13:49:40.411Z,61.65
2018-12-19T13:51:46.574Z,61.62
2018-12-19T13:53:53.178Z,61.40
2018-12-19T13:55:59.356Z,61.60
2018-12-19T13:58:07.178Z,61.68
2018-12-19T14:00:15.055Z,61.95
2018-12-19T14:02:21.231Z,61.70
2018-12-19T14:04:27.753Z,61.79
2018-12-19T14:06:34.029Z,61.94
2018-12-19T14:08:40.967Z,61.75
2018-12-19T14:10:48.461Z,61.71
2018-12-19T14:12:54.598Z,61.90
2018-12-19T14:15:00.955Z,62.17
2018-12-19T14:17:07.245Z,62.04
2018-12-19T14:19:13.666Z,61.72
2018-12-19T14:21:19.947Z,62.03
2018-12-19T14:23:26.277Z,61.86
2018-12-19T14:25:32.474Z,62.33
2018-12-19T14:27:38.633Z,62.22
2018-12-19T14:29:44.807Z,62.26
2018-12-19T14:31:51.434Z,62.60
2018-12-19T14:33:58.204Z,62.62
2018-12-19T14:36:05.103Z,62.49
2018-12-19T14:38:11.281Z,62.70
2018-12-19T14:40:17.463Z,62.61
2018-12-19T14:42:23.598Z,62.23
2018-12-19T14:46:48.895Z,62.55
2018-12-19T14:48:55.420Z,62.34
2018-12-19T14:51:02.842Z,62.88
2018-12-19T14:53:09.306Z,62.45
2018-12-19T14:55:15.616Z,62.82
2018-12-19T14:57:21.990Z,62.46
2018-12-19T14:59:28.148Z,62.86
2018-12-19T15:01:34.435Z,62.76
2018-12-19T15:03:40.575Z,62.99
2018-12-19T15:05:46.718Z,62.83
2018-12-19T15:07:53.667Z,63.05
2018-12-19T15:10:00.047Z,63.09
2018-12-19T15:12:06.335Z,63.11
2018-12-19T15:14:13.284Z,62.92
2018-12-19T15:16:23.782Z,62.98
2018-12-19T15:18:30.031Z,62.96
2018-12-19T15:20:36.372Z,63.22
2018-12-19T15:22:42.609Z,62.75
2018-12-19T15:24:48.814Z,63.08
2018-12-19T15:26:54.948Z,63.13
2018-12-19T15:29:01.705Z,63.11
2018-12-19T15:31:07.990Z,63.24
2018-12-19T15:33:14.241Z,63.34
2018-12-19T15:35:20.367Z,63.27
2018-12-19T15:37:26.515Z,63.49
2018-12-19T15:39:32.772Z,63.20
2018-12-19T15:41:39.017Z,63.45
2018-12-19T15:43:45.131Z,62.91
2018-12-19T15:45:51.852Z,63.37
2018-12-19T15:47:59.074Z,63.39
2018-12-19T15:50:07.187Z,63.25
2018-12-19T15:52:13.540Z,63.49
2018-12-19T15:54:20.281Z,63.25
2018-12-19T15:56:26.497Z,63.20
2018-12-19T15:58:33.260Z,63.11
2018-12-19T16:00:39.578Z,63.43
2018-12-19T16:02:46.821Z,63.29
2018-12-19T16:04:53.142Z,63.49
2018-12-19T16:06:59.812Z,63.42
2018-12-19T16:09:08.382Z,63.54
2018-12-19T16:11:14.715Z,63.78
2018-12-19T16:13:21.244Z,63.55
2018-12-19T16:15:27.588Z,63.77
2018-12-19T16:17:34.088Z,63.58
2018-12-19T16:19:40.438Z,63.36
2018-12-19T16:21:47.235Z,63.58
2018-12-19T16:23:53.653Z,63.35
2018-12-19T16:25:59.929Z,63.66
2018-12-19T16:28:06.338Z,63.82
2018-12-19T16:30:13.375Z,63.63
2018-12-19T16:32:20.090Z,63.97
2018-12-19T16:34:26.305Z,63.86
2018-12-19T16:36:32.640Z,64.08
2018-12-19T16:38:38.930Z,64.08
2018-12-19T16:40:45.379Z,63.80
2018-12-19T16:42:51.679Z,64.01
2018-12-19T16:44:58.767Z,63.92
2018-12-19T16:47:05.223Z,63.50
2018-12-19T16:49:11.599Z,63.57
2018-12-19T16:51:17.845Z,63.72
2018-12-19T16:53:24.105Z,63.51
2018-12-19T16:55:30.274Z,63.64
2018-12-19T16:57:36.441Z,63.82
2018-12-19T16:59:43.432Z,63.73
2018-12-19T17:01:51.158Z,63.87
2018-12-19T17:03:57.883Z,63.94
2018-12-19T17:06:04.097Z,63.77
2018-12-19T17:08:10.509Z,63.75
2018-12-19T17:10:16.884Z,63.45
2018-12-19T17:12:23.092Z,63.80
2018-12-19T17:14:29.904Z,63.84
2018-12-19T17:16:36.102Z,63.47
2018-12-19T17:18:42.273Z,63.93
2018-12-19T17:20:49.890Z,63.69
2018-12-19T17:22:56.321Z,63.58
2018-12-19T17:25:02.588Z,63.73
2018-12-19T17:27:09.135Z,63.78
2018-12-19T17:29:15.193Z,63.66
2018-12-19T17:31:21.713Z,63.50
2018-12-19T17:33:28.080Z,64.02
2018-12-19T17:35:34.184Z,63.97
2018-12-19T17:37:40.396Z,63.71
2018-12-19T17:39:46.407Z,64.17
2018-12-19T17:41:52.706Z,63.85
2018-12-19T17:43:59.179Z,63.59
2018-12-19T17:46:06.009Z,64.01
2018-12-19T17:48:12.101Z,64.01
2018-12-19T17:50:19.461Z,63.71
2018-12-19T17:52:26.231Z,63.63
2018-12-19T17:54:32.395Z,64.03
2018-12-19T17:56:38.979Z,63.68
2018-12-19T17:58:45.125Z,63.71
2018-12-19T18:00:53.349Z,63.77
2018-12-19T18:02:59.607Z,63.80
2018-12-19T18:05:06.269Z,64.08
2018-12-19T18:07:12.547Z,64.07
2018-12-19T18:11:39.549Z,64.36
2018-12-19T18:13:46.027Z,63.75
2018-12-19T18:15:52.448Z,64.11
2018-12-19T18:17:58.574Z,64.01
2018-12-19T18:20:06.142Z,64.49
2018-12-19T18:22:12.195Z,63.89
2018-12-19T18:24:18.371Z,64.01
2018-12-19T18:26:24.500Z,63.93
2018-12-19T18:28:30.698Z,64.02
2018-12-19T18:30:37.933Z,63.69
2018-12-19T18:32:44.323Z,64.05
2018-12-19T18:34:51.114Z,64.00
2018-12-19T18:36:57.389Z,63.85
2018-12-19T18:39:05.614Z,64.28
2018-12-19T18:41:12.958Z,64.26
2018-12-19T18:43:19.149Z,64.37
2018-12-19T18:45:26.247Z,63.93
2018-12-19T18:47:34.601Z,64.15
2018-12-19T18:49:40.764Z,64.43
2018-12-19T18:51:47.121Z,64.19
2018-12-19T18:53:53.521Z,64.55
2018-12-19T18:55:59.901Z,64.21
2018-12-19T18:58:07.207Z,64.12
2018-12-19T19:02:38.373Z,64.55
2018-12-19T19:04:44.693Z,64.14
2018-12-19T19:06:51.089Z,64.18
2018-12-19T19:08:57.559Z,64.69
2018-12-19T19:11:03.818Z,64.31
2018-12-19T19:13:10.096Z,64.54
2018-12-19T19:15:16.344Z,64.41
2018-12-19T19:17:22.603Z,64.62
2018-12-19T19:21:46.586Z,64.47
2018-12-19T19:23:54.231Z,64.72
2018-12-19T19:26:00.538Z,64.37
2018-12-19T19:28:06.748Z,64.32
2018-12-19T19:30:13.203Z,64.44
2018-12-19T19:32:19.484Z,64.40
2018-12-19T19:34:26.494Z,64.11
2018-12-19T19:36:33.342Z,64.48
2018-12-19T19:38:39.646Z,64.57
2018-12-19T19:40:45.871Z,64.36
2018-12-19T19:45:09.688Z,64.79
2018-12-19T19:47:15.792Z,64.59
2018-12-19T19:49:22.152Z,64.59
2018-12-19T19:51:28.372Z,64.51
2018-12-19T19:53:34.567Z,64.58
2018-12-19T19:55:40.976Z,64.72
2018-12-19T19:57:47.105Z,64.65
2018-12-19T19:59:53.395Z,64.77
2018-12-19T20:01:59.798Z,64.79
2018-12-19T20:04:06.046Z,64.83
2018-12-19T20:06:12.391Z,64.43
2018-12-19T20:08:18.577Z,64.44
2018-12-19T20:10:24.847Z,64.82
2018-12-19T20:12:31.752Z,64.65
2018-12-19T20:14:37.911Z,64.11
2018-12-19T20:16:49.359Z,64.82
2018-12-19T20:18:55.568Z,64.34
2018-12-19T20:21:01.764Z,64.76
2018-12-19T20:23:08.056Z,64.53
2018-12-19T20:25:14.179Z,64.81
2018-12-19T20:27:21.404Z,64.47
2018-12-19T20:29:27.738Z,64.93
2018-12-19T20:31:33.903Z,64.68
2018-12-19T20:33:40.254Z,64.87
2018-12-19T20:35:46.419Z,64.58
2018-12-19T20:37:52.638Z,64.79
2018-12-19T20:39:58.923Z,64.49
2018-12-19T20:42:05.735Z,65.05
2018-12-19T20:44:12.090Z,64.39
2018-12-19T20:46:18.304Z,64.61
2018-12-19T20:48:24.472Z,64.65
2018-12-19T20:50:31.546Z,64.30
2018-12-19T20:52:38.002Z,64.42
2018-12-19T20:54:44.159Z,64.56
2018-12-19T20:56:54.655Z,64.78
2018-12-19T20:59:00.835Z,64.72
2018-12-19T21:01:07.113Z,64.28
2018-12-19T21:03:13.621Z,64.60
2018-12-19T21:05:19.723Z,64.31
2018-12-19T21:07:26.221Z,64.30
2018-12-19T21:09:32.497Z,64.76
2018-12-19T21:11:38.821Z,64.31
2018-12-19T21:13:46.863Z,64.29
2018-12-19T21:15:53.947Z,64.38
2018-12-19T21:18:05.747Z,64.45
2018-12-19T21:20:11.839Z,64.57
2018-12-19T21:22:18.127Z,64.45
2018-12-19T21:24:24.418Z,64.66
2018-12-19T21:26:30.563Z,64.78
2018-12-19T21:28:36.830Z,64.77
2018-12-19T21:30:42.957Z,64.62
2018-12-19T21:32:49.226Z,64.44
2018-12-19T21:34:55.538Z,64.60
2018-12-19T21:37:03.020Z,64.61
2018-12-19T21:39:11.796Z,64.48
2018-12-19T21:41:17.960Z,64.75
2018-12-19T21:43:24.737Z,64.38
2018-12-19T21:45:30.873Z,64.63
2018-12-19T21:47:37.096Z,64.69
2018-12-19T21:49:43.256Z,64.61
2018-12-19T21:51:49.526Z,64.85
2018-12-19T21:53:55.745Z,64.66
2018-12-19T21:56:02.793Z,64.92
2018-12-19T21:58:09.564Z,64.89
2018-12-19T22:00:19.346Z,64.86
2018-12-19T22:02:25.924Z,64.75
2018-12-19T22:04:32.286Z,64.60
2018-12-19T22:06:38.592Z,65.15
2018-12-19T22:08:45.720Z,65.01
2018-12-19T22:10:52.653Z,64.65
2018-12-19T22:12:58.887Z,65.04
2018-12-19T22:15:06.112Z,64.91
2018-12-19T22:17:17.367Z,64.79
2018-12-19T22:19:23.639Z,64.91
2018-12-19T22:23:59.795Z,64.81
2018-12-19T22:26:06.083Z,65.10
2018-12-19T22:28:13.190Z,64.91
2018-12-19T22:30:19.826Z,64.77
2018-12-19T22:32:26.171Z,64.82
2018-12-19T22:34:32.378Z,65.10
2018-12-19T22:36:38.574Z,64.90
2018-12-19T22:38:44.733Z,64.76
2018-12-19T22:40:51.003Z,64.83
2018-12-19T22:42:57.150Z,64.99
2018-12-19T22:45:04.322Z,65.01
2018-12-19T22:47:11.107Z,64.86
2018-12-19T22:49:17.554Z,64.87
2018-12-19T22:51:23.799Z,64.86
2018-12-19T22:53:30.712Z,65.14
2018-12-19T22:55:37.020Z,65.13
2018-12-19T22:57:43.188Z,64.90
2018-12-19T22:59:50.673Z,64.76
2018-12-19T23:02:02.105Z,64.53
2018-12-19T23:04:08.764Z,64.75
2018-12-19T23:06:16.997Z,64.91
2018-12-19T23:08:23.697Z,64.67
2018-12-19T23:10:30.039Z,65.03
2018-12-19T23:12:36.380Z,64.95
2018-12-19T23:14:43.057Z,64.86
2018-12-19T23:16:54.780Z,64.98
2018-12-19T23:19:06.663Z,64.78
2018-12-19T23:21:18.518Z,65.21
2018-12-19T23:23:30.802Z,64.83
2018-12-19T23:25:42.396Z,65.14
2018-12-19T23:27:50.633Z,65.20
2018-12-19T23:29:56.884Z,64.92
2018-12-19T23:34:28.372Z,65.34
2018-12-19T23:36:35.335Z,65.41
2018-12-19T23:38:41.990Z,65.25
2018-12-19T23:40:48.425Z,65.53
2018-12-19T23:42:54.652Z,65.35
2018-12-19T23:45:01.870Z,65.44
2018-12-19T23:47:08.231Z,65.52
2018-12-19T23:49:14.646Z,65.87
2018-12-19T23:51:20.891Z,65.55
2018-12-19T23:53:27.019Z,65.53
2018-12-19T23:55:38.713Z,65.47
2018-12-19T23:57:44.770Z,65.61
2018-12-19T23:59:51.654Z,65.57
